createdAt,value
2023-01-11T00:02:18.338Z,100386.41
2023-01-11T00:05:20.828Z,100393.63
2023-01-11T00:08:26.355Z,100387.09
2023-01-11T00:11:28.805Z,100388.50
2023-01-11T00:14:30.947Z,100393.53
2023-01-11T00:17:33.550Z,100389.44
2023-01-11T00:20:39.279Z,100388.97
2023-01-11T00:23:41.787Z,100394.00
2023-01-11T00:26:43.995Z,100390.38
2023-01-11T00:29:46.454Z,100387.69
2023-01-11T00:32:48.603Z,100391.47
2023-01-11T00:35:52.188Z,100392.25
2023-01-11T00:38:55.359Z,100394.06
2023-01-11T00:42:16.157Z,100395.38
2023-01-11T00:45:37.073Z,100387.06
2023-01-11T00:48:39.532Z,100405.38
2023-01-11T00:51:41.711Z,100401.97
2023-01-11T00:54:44.202Z,100410.72
2023-01-11T00:57:46.679Z,100410.97
2023-01-11T01:00:49.200Z,100406.69
2023-01-11T01:03:51.423Z,100417.66
2023-01-11T01:06:53.957Z,100420.97
2023-01-11T01:09:56.239Z,100425.91
2023-01-11T01:13:17.791Z,100433.47
2023-01-11T01:16:20.152Z,100425.66
2023-01-11T01:19:23.498Z,100424.25
2023-01-11T01:22:25.724Z,100432.56
2023-01-11T01:25:28.216Z,100431.47
2023-01-11T01:28:30.734Z,100425.25
2023-01-11T01:31:33.430Z,100422.19
2023-01-11T01:34:39.159Z,100426.38
2023-01-11T01:37:43.885Z,100429.63
2023-01-11T01:40:48.103Z,100435.97
2023-01-11T01:43:56.433Z,100436.44
2023-01-11T01:46:58.738Z,100432.69
2023-01-11T01:50:08.146Z,100438.94
2023-01-11T01:53:17.074Z,100442.25
2023-01-11T01:56:30.425Z,100440.37
2023-01-11T01:59:33.897Z,100427.16
2023-01-11T02:02:38.106Z,100426.38
2023-01-11T02:05:40.705Z,100429.59
2023-01-11T02:08:49.429Z,100426.56
2023-01-11T02:11:54.137Z,100431.62
2023-01-11T02:14:56.431Z,100437.31
2023-01-11T02:17:58.878Z,100450.41
2023-01-11T02:21:25.912Z,100439.88
2023-01-11T02:25:02.768Z,100448.97
2023-01-11T02:28:22.833Z,100454.41
2023-01-11T02:31:41.304Z,100452.28
2023-01-11T02:35:02.035Z,100450.16
2023-01-11T02:38:14.272Z,100461.72
2023-01-11T02:41:21.161Z,100465.84
2023-01-11T02:45:05.183Z,100469.38
2023-01-11T02:48:26.406Z,100464.09
2023-01-11T02:51:35.499Z,100463.84
2023-01-11T02:54:41.675Z,100463.84
2023-01-11T02:57:45.942Z,100456.94
2023-01-11T03:00:49.095Z,100465.50
2023-01-11T03:03:52.808Z,100465.81
2023-01-11T03:07:03.018Z,100480.50
2023-01-11T03:10:31.946Z,100496.47
2023-01-11T03:13:39.096Z,100489.00
2023-01-11T03:16:51.679Z,100491.59
2023-01-11T03:20:00.474Z,100489.62
2023-01-11T03:23:21.909Z,100488.25
2023-01-11T03:26:23.802Z,100489.91
2023-01-11T03:29:34.206Z,100501.91
2023-01-11T03:32:54.900Z,100512.72
2023-01-11T03:36:11.178Z,100514.22
2023-01-11T03:39:29.040Z,100516.19
2023-01-11T03:42:34.048Z,100520.50
2023-01-11T03:45:39.398Z,100526.59
2023-01-11T03:48:51.004Z,100515.66
2023-01-11T03:51:56.773Z,100511.44
2023-01-11T03:55:00.162Z,100505.81
2023-01-11T03:58:02.547Z,100491.84
2023-01-11T04:01:05.645Z,100477.06
2023-01-11T04:04:08.143Z,100473.66
2023-01-11T04:07:10.454Z,100471.06
2023-01-11T04:10:13.025Z,100475.38
2023-01-11T04:13:15.371Z,100472.94
2023-01-11T04:16:18.031Z,100472.31
2023-01-11T04:19:20.191Z,100481.88
2023-01-11T04:22:22.666Z,100487.34
2023-01-11T04:25:24.977Z,100486.75
2023-01-11T04:28:27.484Z,100485.91
2023-01-11T04:31:29.883Z,100494.72
2023-01-11T04:34:32.408Z,100495.25
2023-01-11T04:37:34.585Z,100483.94
2023-01-11T04:40:37.240Z,100484.13
2023-01-11T04:43:39.385Z,100474.06
2023-01-11T04:46:41.983Z,100485.66
2023-01-11T04:49:44.828Z,100510.88
2023-01-11T04:52:47.312Z,100514.78
2023-01-11T04:55:49.436Z,100514.75
2023-01-11T04:58:51.853Z,100517.88
2023-01-11T05:01:54.133Z,100511.63
2023-01-11T05:04:56.563Z,100514.06
2023-01-11T05:07:58.813Z,100514.16
2023-01-11T05:11:05.270Z,100532.09
2023-01-11T05:14:07.499Z,100520.97
2023-01-11T05:17:14.049Z,100520.44
2023-01-11T05:20:16.453Z,100512.13
2023-01-11T05:23:19.230Z,100514.25
2023-01-11T05:26:27.893Z,100516.47
2023-01-11T05:29:30.518Z,100521.78
2023-01-11T05:32:32.725Z,100544.12
2023-01-11T05:35:35.532Z,100539.34
2023-01-11T05:38:37.714Z,100524.16
2023-01-11T05:41:40.620Z,100524.34
2023-01-11T05:45:01.258Z,100510.53
2023-01-11T05:48:04.288Z,100522.91
2023-01-11T05:51:06.493Z,100523.44
2023-01-11T05:54:14.388Z,100517.78
2023-01-11T05:57:18.520Z,100511.41
2023-01-11T06:00:23.085Z,100512.25
2023-01-11T06:03:26.993Z,100513.31
2023-01-11T06:06:29.695Z,100506.50
2023-01-11T06:09:32.582Z,100497.16
2023-01-11T06:12:35.257Z,100499.75
2023-01-11T06:15:37.840Z,100509.06
2023-01-11T06:18:45.822Z,100520.22
2023-01-11T06:21:48.266Z,100507.16
2023-01-11T06:24:50.401Z,100514.63
2023-01-11T06:27:53.690Z,100521.78
2023-01-11T06:30:57.602Z,100505.06
2023-01-11T06:34:00.445Z,100511.69
2023-01-11T06:37:03.512Z,100511.16
2023-01-11T06:40:12.940Z,100519.00
2023-01-11T06:43:15.231Z,100520.78
2023-01-11T06:46:19.060Z,100518.53
2023-01-11T06:49:21.492Z,100522.41
2023-01-11T06:52:24.513Z,100536.59
2023-01-11T06:55:28.314Z,100538.16
2023-01-11T06:58:31.113Z,100543.78
2023-01-11T07:01:34.129Z,100559.81
2023-01-11T07:04:37.401Z,100566.37
2023-01-11T07:07:41.209Z,100560.00
2023-01-11T07:10:44.129Z,100559.63
2023-01-11T07:13:46.645Z,100564.69
2023-01-11T07:16:49.171Z,100583.03
2023-01-11T07:19:52.560Z,100586.63
2023-01-11T07:23:02.023Z,100603.25
2023-01-11T07:26:04.231Z,100600.44
2023-01-11T07:29:08.679Z,100601.34
2023-01-11T07:32:11.013Z,100608.84
2023-01-11T07:35:13.618Z,100607.66
2023-01-11T07:38:15.922Z,100616.69
2023-01-11T07:41:40.099Z,100616.44
2023-01-11T07:44:46.659Z,100611.91
2023-01-11T07:47:52.379Z,100612.66
2023-01-11T07:50:55.659Z,100607.16
2023-01-11T07:54:02.668Z,100598.97
2023-01-11T07:57:05.211Z,100598.44
2023-01-11T08:00:10.874Z,100599.72
2023-01-11T08:03:14.580Z,100597.31
2023-01-11T08:06:17.668Z,100597.81
2023-01-11T08:09:20.166Z,100595.44
2023-01-11T08:12:41.705Z,100598.62
2023-01-11T08:15:44.245Z,100606.03
2023-01-11T08:18:48.126Z,100609.13
2023-01-11T08:21:51.235Z,100613.47
2023-01-11T08:24:53.898Z,100617.72
2023-01-11T08:27:56.155Z,100612.22
2023-01-11T08:30:59.009Z,100619.59
2023-01-11T08:34:01.671Z,100625.38
2023-01-11T08:37:05.425Z,100633.81
2023-01-11T08:40:10.302Z,100636.22
2023-01-11T08:43:15.589Z,100636.19
2023-01-11T08:46:21.541Z,100633.09
2023-01-11T08:49:24.615Z,100635.00
2023-01-11T08:52:30.870Z,100628.19
2023-01-11T08:55:33.556Z,100635.97
2023-01-11T08:58:36.410Z,100630.44
2023-01-11T09:01:39.262Z,100635.84
2023-01-11T09:04:41.972Z,100629.16
2023-01-11T09:07:51.899Z,100639.19
2023-01-11T09:10:56.284Z,100627.13
2023-01-11T09:13:59.263Z,100625.09
2023-01-11T09:17:01.714Z,100635.47
2023-01-11T09:20:07.337Z,100625.28
2023-01-11T09:23:09.633Z,100626.31
2023-01-11T09:26:13.025Z,100633.44
2023-01-11T09:29:16.032Z,100629.47
2023-01-11T09:32:19.004Z,100628.91
2023-01-11T09:35:22.620Z,100627.50
2023-01-11T09:38:29.531Z,100633.56
2023-01-11T09:41:34.453Z,100624.19
2023-01-11T09:44:49.761Z,100625.38
2023-01-11T09:48:01.059Z,100621.09
2023-01-11T09:51:05.464Z,100628.69
2023-01-11T09:54:16.674Z,100624.72
2023-01-11T09:58:03.676Z,100619.09
2023-01-11T10:01:15.839Z,100615.44
2023-01-11T10:04:44.451Z,100614.41
2023-01-11T10:18:28.620Z,100593.00
2023-01-11T10:22:43.123Z,100575.87
2023-01-11T10:25:51.792Z,100577.72
2023-01-11T10:29:21.157Z,100580.50
2023-01-11T10:32:48.001Z,100591.03
2023-01-11T10:36:15.097Z,100591.22
2023-01-11T10:39:43.686Z,100591.31
2023-01-11T10:42:57.141Z,100591.66
2023-01-11T10:49:48.320Z,100584.81
2023-01-11T10:53:20.552Z,100591.66
2023-01-11T10:57:02.322Z,100591.94
2023-01-11T11:00:15.081Z,100587.72
2023-01-11T11:03:30.884Z,100584.84
2023-01-11T11:06:41.414Z,100583.13
2023-01-11T11:10:24.622Z,100579.00
2023-01-11T11:13:51.686Z,100582.63
2023-01-11T11:17:12.379Z,100580.28
2023-01-11T11:20:29.559Z,100565.50
2023-01-11T11:23:34.965Z,100558.84
2023-01-11T11:26:43.051Z,100548.87
2023-01-11T11:29:53.130Z,100549.78
2023-01-11T11:33:05.022Z,100547.66
2023-01-11T11:36:12.387Z,100545.41
2023-01-11T11:39:30.810Z,100555.37
2023-01-11T11:42:33.123Z,100543.53
2023-01-11T11:45:36.356Z,100543.62
2023-01-11T11:48:38.715Z,100557.62
2023-01-11T11:51:43.904Z,100550.81
2023-01-11T11:54:53.366Z,100554.34
2023-01-11T11:57:59.017Z,100548.59
2023-01-11T12:01:02.670Z,100545.09
2023-01-11T12:04:18.785Z,100541.41
2023-01-11T12:07:25.020Z,100543.28
2023-01-11T12:10:29.623Z,100548.59
2023-01-11T12:13:38.151Z,100546.56
2023-01-11T12:16:41.644Z,100547.03
2023-01-11T12:19:45.324Z,100548.00
2023-01-11T12:22:48.735Z,100551.28
2023-01-11T12:26:16.666Z,100552.25
2023-01-11T12:29:57.623Z,100560.28
2023-01-11T12:33:27.869Z,100559.25
2023-01-11T12:36:30.314Z,100564.84
2023-01-11T12:39:49.803Z,100555.63
2023-01-11T12:43:12.384Z,100561.03
2023-01-11T12:46:37.528Z,100551.41
2023-01-11T12:50:05.379Z,100559.53
2023-01-11T12:53:36.909Z,100565.03
2023-01-11T12:56:57.375Z,100558.53
2023-01-11T13:00:18.716Z,100552.97
2023-01-11T13:03:21.220Z,100546.50
2023-01-11T13:06:39.361Z,100546.66
2023-01-11T13:09:41.863Z,100545.09
2023-01-11T13:12:51.416Z,100550.00
2023-01-11T13:16:23.522Z,100547.34
2023-01-11T13:20:18.984Z,100551.44
2023-01-11T13:23:36.404Z,100547.56
2023-01-11T13:26:44.303Z,100549.44
2023-01-11T13:29:50.998Z,100554.34
2023-01-11T13:33:19.709Z,100568.28
2023-01-11T13:36:28.262Z,100566.66
2023-01-11T13:39:53.919Z,100566.94
2023-01-11T13:43:25.357Z,100571.25
2023-01-11T13:46:36.707Z,100570.00
2023-01-11T13:50:23.730Z,100574.44
2023-01-11T13:53:37.504Z,100574.56
2023-01-11T13:56:42.933Z,100567.88
2023-01-11T13:59:51.449Z,100567.94
2023-01-11T14:03:12.603Z,100570.81
2023-01-11T14:06:42.687Z,100566.25
2023-01-11T14:09:53.950Z,100572.66
2023-01-11T14:13:12.522Z,100571.00
2023-01-11T14:16:33.896Z,100571.66
2023-01-11T14:19:54.865Z,100564.47
2023-01-11T14:23:13.799Z,100568.94
2023-01-11T14:26:34.997Z,100569.91
2023-01-11T14:29:49.183Z,100562.81
2023-01-11T14:32:57.487Z,100560.00
2023-01-11T14:36:17.788Z,100552.47
2023-01-11T14:39:23.837Z,100564.59
2023-01-11T14:42:53.704Z,100561.25
2023-01-11T14:45:56.082Z,100554.88
2023-01-11T14:49:22.610Z,100557.09
2023-01-11T14:52:39.198Z,100560.09
2023-01-11T14:55:47.889Z,100550.88
2023-01-11T14:59:22.100Z,100550.88
2023-01-11T15:02:26.798Z,100549.81
2023-01-11T15:05:29.308Z,100548.47
2023-01-11T15:08:44.708Z,100547.78
2023-01-11T15:11:47.193Z,100548.38
2023-01-11T15:15:44.537Z,100546.34
2023-01-11T15:18:47.203Z,100547.91
2023-01-11T15:21:50.681Z,100545.78
2023-01-11T15:25:05.510Z,100557.62
2023-01-11T15:28:35.961Z,100554.66
2023-01-11T15:31:54.269Z,100555.22
2023-01-11T15:35:24.580Z,100558.81
2023-01-11T15:38:36.923Z,100563.38
2023-01-11T15:42:04.281Z,100559.91
2023-01-11T15:45:36.205Z,100559.88
2023-01-11T15:49:08.065Z,100554.31
2023-01-11T15:52:37.174Z,100559.09
2023-01-11T15:56:05.508Z,100553.41
2023-01-11T15:59:55.147Z,100557.06
2023-01-11T16:02:57.263Z,100559.72
2023-01-11T16:06:31.984Z,100560.94
2023-01-11T16:10:02.469Z,100557.97
2023-01-11T16:13:36.232Z,100560.78
2023-01-11T16:16:41.698Z,100555.59
2023-01-11T16:19:45.382Z,100556.44
2023-01-11T16:23:14.209Z,100555.28
2023-01-11T16:26:19.642Z,100547.91
2023-01-11T16:29:28.812Z,100545.25
2023-01-11T16:32:32.952Z,100544.50
2023-01-11T16:35:35.524Z,100543.38
2023-01-11T16:39:04.846Z,100556.63
2023-01-11T16:42:11.072Z,100556.75
2023-01-11T16:45:18.776Z,100541.94
2023-01-11T16:48:29.456Z,100544.06
2023-01-11T16:51:32.341Z,100555.44
2023-01-11T16:54:35.292Z,100549.50
2023-01-11T16:57:44.073Z,100556.63
2023-01-11T17:01:00.676Z,100560.25
2023-01-11T17:04:07.262Z,100558.63
2023-01-11T17:07:12.194Z,100555.69
2023-01-11T17:10:22.330Z,100549.53
2023-01-11T17:13:52.893Z,100551.97
2023-01-11T17:17:01.474Z,100565.84
2023-01-11T17:20:13.790Z,100566.53
2023-01-11T17:23:17.140Z,100557.56
2023-01-11T17:26:25.893Z,100562.34
2023-01-11T17:29:37.576Z,100558.75
2023-01-11T17:32:43.596Z,100557.91
2023-01-11T17:35:46.510Z,100561.81
2023-01-11T17:38:48.755Z,100565.66
2023-01-11T17:42:10.652Z,100565.25
2023-01-11T17:45:22.680Z,100569.53
2023-01-11T17:48:27.410Z,100571.03
2023-01-11T17:51:32.312Z,100571.03
2023-01-11T17:54:34.812Z,100575.78
2023-01-11T17:57:37.403Z,100573.50
2023-01-11T18:00:42.334Z,100575.34
2023-01-11T18:03:46.317Z,100581.38
2023-01-11T18:06:52.706Z,100577.84
2023-01-11T18:10:02.181Z,100578.81
2023-01-11T18:13:05.845Z,100584.94
2023-01-11T18:16:08.657Z,100585.16
2023-01-11T18:19:31.400Z,100594.50
2023-01-11T18:22:41.749Z,100589.69
2023-01-11T18:25:46.075Z,100580.75
2023-01-11T18:28:51.109Z,100586.34
2023-01-11T18:31:53.520Z,100598.06
2023-01-11T18:34:58.708Z,100595.34
2023-01-11T18:38:00.926Z,100604.97
2023-01-11T18:41:27.465Z,100597.81
2023-01-11T18:44:30.829Z,100602.25
2023-01-11T18:47:33.359Z,100608.00
2023-01-11T18:50:35.588Z,100610.22
2023-01-11T18:53:38.068Z,100605.06
2023-01-11T18:56:40.477Z,100621.13
2023-01-11T18:59:43.578Z,100625.28
2023-01-11T19:02:46.109Z,100625.41
2023-01-11T19:05:48.614Z,100610.78
2023-01-11T19:08:50.971Z,100610.34
2023-01-11T19:11:53.605Z,100621.09
2023-01-11T19:14:56.341Z,100614.09
2023-01-11T19:21:11.776Z,100622.81
2023-01-11T19:24:14.239Z,100618.72
2023-01-11T19:27:16.826Z,100628.97
2023-01-11T19:30:19.497Z,100619.06
2023-01-11T19:33:21.995Z,100625.94
2023-01-11T19:36:24.997Z,100639.44
2023-01-11T19:39:27.404Z,100646.63
2023-01-11T19:42:30.121Z,100644.88
2023-01-11T19:45:32.595Z,100650.69
2023-01-11T19:48:36.277Z,100641.72
2023-01-11T19:51:40.046Z,100656.78
2023-01-11T19:54:43.042Z,100652.41
2023-01-11T19:57:45.731Z,100653.38
2023-01-11T20:00:48.172Z,100648.78
2023-01-11T20:03:50.747Z,100648.28
2023-01-11T20:06:53.831Z,100653.03
2023-01-11T20:09:56.851Z,100655.91
2023-01-11T20:12:59.046Z,100645.94
2023-01-11T20:16:06.183Z,100645.00
2023-01-11T20:19:08.549Z,100635.25
2023-01-11T20:22:11.089Z,100643.87
2023-01-11T20:25:13.649Z,100647.81
2023-01-11T20:28:16.241Z,100648.38
2023-01-11T20:31:18.548Z,100648.81
2023-01-11T20:34:21.459Z,100650.63
2023-01-11T20:37:23.950Z,100651.66
2023-01-11T20:40:26.456Z,100652.31
2023-01-11T20:43:28.737Z,100654.66
2023-01-11T20:46:31.517Z,100651.06
2023-01-11T20:49:34.156Z,100652.25
2023-01-11T20:52:36.711Z,100653.81
2023-01-11T20:55:39.217Z,100657.97
2023-01-11T20:58:41.690Z,100669.19
2023-01-11T21:01:44.212Z,100665.34
2023-01-11T21:04:47.056Z,100658.44
2023-01-11T21:07:52.923Z,100672.06
2023-01-11T21:10:55.408Z,100673.25
2023-01-11T21:14:02.158Z,100676.88
2023-01-11T21:17:04.761Z,100681.19
2023-01-11T21:20:08.023Z,100676.56
2023-01-11T21:23:15.212Z,100687.06
2023-01-11T21:26:19.204Z,100688.28
2023-01-11T21:29:21.918Z,100700.56
2023-01-11T21:32:24.090Z,100686.81
2023-01-11T21:35:27.242Z,100699.28
2023-01-11T21:38:31.666Z,100695.16
2023-01-11T21:41:52.938Z,100697.94
2023-01-11T21:44:55.470Z,100697.78
2023-01-11T21:47:57.972Z,100692.06
2023-01-11T21:51:00.538Z,100696.34
2023-01-11T21:54:08.012Z,100697.97
2023-01-11T21:57:10.324Z,100697.81
2023-01-11T22:00:14.611Z,100700.53
2023-01-11T22:03:17.362Z,100703.50
2023-01-11T22:06:19.875Z,100703.25
2023-01-11T22:09:25.819Z,100701.81
2023-01-11T22:12:28.307Z,100698.69
2023-01-11T22:15:30.810Z,100701.34
2023-01-11T22:18:35.221Z,100697.56
2023-01-11T22:21:37.978Z,100707.78
2023-01-11T22:24:40.184Z,100701.75
2023-01-11T22:27:42.967Z,100695.38
2023-01-11T22:30:45.191Z,100704.75
2023-01-11T22:33:48.146Z,100710.06
2023-01-11T22:36:50.877Z,100713.31
2023-01-11T22:39:53.685Z,100719.34
2023-01-11T22:42:56.232Z,100707.91
2023-01-11T22:46:00.481Z,100712.81
2023-01-11T22:49:04.880Z,100716.25
2023-01-11T22:52:07.731Z,100712.97
2023-01-11T22:55:10.373Z,100719.63
2023-01-11T22:58:12.901Z,100720.69
2023-01-11T23:01:25.990Z,100722.63
2023-01-11T23:04:28.638Z,100730.97
2023-01-11T23:07:30.917Z,100731.44
2023-01-11T23:10:33.402Z,100733.09
2023-01-11T23:13:58.918Z,100725.84
2023-01-11T23:17:08.627Z,100715.84
2023-01-11T23:20:11.540Z,100718.94
2023-01-11T23:23:14.014Z,100715.78
2023-01-11T23:26:20.339Z,100717.12
2023-01-11T23:29:23.493Z,100714.66
2023-01-11T23:32:26.050Z,100704.31
2023-01-11T23:35:29.066Z,100704.75
2023-01-11T23:38:32.702Z,100695.69
2023-01-11T23:41:54.512Z,100706.50
2023-01-11T23:44:58.781Z,100707.75
2023-01-11T23:48:01.315Z,100725.28
2023-01-11T23:51:04.503Z,100724.87
2023-01-11T23:54:07.720Z,100722.22
2023-01-11T23:57:12.256Z,100710.56
